Time;durP1;ratioP1;P1;durP2;ratioP2;P2;SDS_P1;SDS_P2;PMS_P1;PMS_P2;Temp;Humidity;BMP_temperature;BMP_pressure;BME280_temperature;BME280_humidity;BME280_pressure;Samples;Min_cycle;Max_cycle;Signal;HPM_P1;HPM_P2
2021/08/08 00:00:27;;;;;;;3.65;0.90;;;14.60;99.90;;;;;;5054299;28;20029;-75
2021/08/08 00:02:53;;;;;;;2.70;1.00;;;14.60;99.90;;;;;;5072674;28;20020;-74
2021/08/08 00:05:18;;;;;;;4.00;1.00;;;14.60;99.90;;;;;;5072509;28;20068;-75
2021/08/08 00:07:45;;;;;;;4.10;1.40;;;14.60;99.90;;;;;;5072349;28;20520;-73
2021/08/08 00:10:12;;;;;;;1.75;1.08;;;14.60;99.90;;;;;;5072542;28;20115;-73
2021/08/08 00:12:41;;;;;;;2.92;1.45;;;14.60;99.90;;;;;;5072320;28;20537;-73
2021/08/08 00:15:08;;;;;;;3.78;1.23;;;14.60;99.90;;;;;;5072231;28;20060;-74
2021/08/08 00:17:34;;;;;;;1.35;0.75;;;14.60;99.90;;;;;;5054253;28;20066;-74
2021/08/08 00:19:59;;;;;;;2.13;0.90;;;14.60;99.90;;;;;;5072397;28;20056;-73
2021/08/08 00:22:25;;;;;;;2.00;1.00;;;14.60;99.90;;;;;;5072272;28;20013;-73
2021/08/08 00:24:51;;;;;;;1.38;0.60;;;14.60;99.90;;;;;;5072427;28;20031;-73
2021/08/08 00:27:16;;;;;;;5.22;0.90;;;14.60;99.90;;;;;;5072507;28;20107;-73
2021/08/08 00:29:42;;;;;;;3.58;1.02;;;14.60;99.90;;;;;;5072265;28;20021;-73
2021/08/08 00:32:08;;;;;;;1.65;0.80;;;14.60;99.90;;;;;;5072789;28;20032;-73
2021/08/08 00:34:34;;;;;;;1.67;0.60;;;14.60;99.90;;;;;;5075482;28;20111;-73
2021/08/08 00:36:59;;;;;;;3.40;0.70;;;14.70;99.90;;;;;;5094212;28;20063;-74
2021/08/08 00:39:25;;;;;;;1.08;0.70;;;14.60;99.90;;;;;;5095931;28;20469;-74
2021/08/08 00:41:51;;;;;;;0.95;0.63;;;14.60;99.90;;;;;;5094114;28;20027;-73
2021/08/08 00:44:17;;;;;;;3.15;0.70;;;14.60;99.90;;;;;;5058055;28;20551;-73
2021/08/08 00:46:42;;;;;;;0.68;0.68;;;14.60;99.90;;;;;;5075644;28;20052;-73
2021/08/08 00:49:08;;;;;;;2.55;0.70;;;14.60;99.90;;;;;;5075801;28;20074;-74
2021/08/08 00:51:34;;;;;;;3.22;0.90;;;14.60;99.90;;;;;;5075579;28;20025;-74
2021/08/08 00:54:00;;;;;;;2.05;0.70;;;14.60;99.90;;;;;;5075932;28;20478;-73
2021/08/08 00:56:26;;;;;;;1.88;0.63;;;14.60;99.90;;;;;;5075778;28;20020;-73
2021/08/08 00:58:51;;;;;;;7.63;0.80;;;14.60;99.90;;;;;;5075550;28;20043;-74
2021/08/08 01:01:21;;;;;;;1.92;0.60;;;14.60;99.90;;;;;;5075377;28;20025;-74
2021/08/08 01:03:48;;;;;;;2.90;0.70;;;14.60;99.90;;;;;;5075434;28;20078;-73
2021/08/08 01:06:43;;;;;;;1.70;0.77;;;14.60;99.90;;;;;;5075076;28;20024;-74
2021/08/08 01:09:11;;;;;;;5.93;0.73;;;14.60;99.90;;;;;;5075943;28;20400;-73
2021/08/08 01:11:38;;;;;;;0.88;0.60;;;14.60;99.90;;;;;;5075164;28;20032;-74
2021/08/08 01:14:06;;;;;;;1.52;0.70;;;14.60;99.90;;;;;;5075170;28;20105;-74
2021/08/08 01:16:32;;;;;;;2.00;0.60;;;14.60;99.90;;;;;;5074910;28;20041;-74
2021/08/08 01:18:58;;;;;;;3.83;0.50;;;14.60;99.90;;;;;;5074751;28;20473;-74
2021/08/08 01:21:27;;;;;;;4.53;0.70;;;14.60;99.90;;;;;;5057090;28;20020;-74
2021/08/08 01:24:06;;;;;;;4.22;0.68;;;14.60;99.90;;;;;;5075358;28;20063;-74
2021/08/08 01:26:33;;;;;;;3.42;0.70;;;14.50;99.90;;;;;;5056798;28;20377;-74
2021/08/08 01:29:01;;;;;;;2.38;0.70;;;14.50;99.90;;;;;;5074803;28;20016;-74
2021/08/08 01:31:28;;;;;;;2.13;0.55;;;14.60;99.90;;;;;;5057038;28;20520;-74
2021/08/08 01:33:53;;;;;;;5.72;1.27;;;14.60;99.90;;;;;;5074708;28;20117;-74
2021/08/08 01:36:19;;;;;;;4.38;0.60;;;14.50;99.90;;;;;;5074699;28;20100;-74
2021/08/08 01:39:03;;;;;;;3.42;0.70;;;14.60;99.90;;;;;;5074865;28;20095;-74
2021/08/08 01:41:35;;;;;;;5.10;0.70;;;14.60;99.90;;;;;;5091067;28;20481;-74
2021/08/08 01:44:03;;;;;;;1.88;0.73;;;14.60;99.90;;;;;;5095289;28;20016;-74
2021/08/08 01:46:32;;;;;;;1.95;0.80;;;14.60;99.90;;;;;;5094328;28;20020;-74
2021/08/08 01:48:59;;;;;;;1.55;0.70;;;14.60;99.90;;;;;;5076611;28;20384;-74
2021/08/08 01:51:26;;;;;;;3.00;0.80;;;14.60;99.90;;;;;;5095023;28;20027;-75
2021/08/08 01:53:52;;;;;;;2.65;0.90;;;14.60;99.90;;;;;;5094838;28;20020;-74
2021/08/08 01:56:18;;;;;;;7.13;0.85;;;14.50;99.90;;;;;;5077283;28;20493;-74
2021/08/08 01:58:44;;;;;;;3.58;0.75;;;14.50;99.90;;;;;;5076674;28;20016;-74
2021/08/08 02:01:10;;;;;;;1.02;0.70;;;14.50;99.90;;;;;;5056224;28;20376;-74
2021/08/08 02:03:37;;;;;;;2.67;0.85;;;14.50;99.90;;;;;;5075550;28;20183;-74
2021/08/08 02:06:04;;;;;;;2.00;0.80;;;14.50;99.90;;;;;;5094498;28;20020;-74
2021/08/08 02:08:30;;;;;;;2.28;0.88;;;14.40;99.90;;;;;;5094390;28;20050;-74
2021/08/08 02:10:56;;;;;;;3.53;0.60;;;14.40;99.90;;;;;;5088423;28;20029;-74
2021/08/08 02:13:21;;;;;;;2.10;0.77;;;14.40;99.90;;;;;;5086286;28;20028;-73
2021/08/08 02:15:47;;;;;;;1.95;0.60;;;14.40;99.90;;;;;;5075996;28;20080;-74
2021/08/08 02:18:13;;;;;;;2.58;0.70;;;14.40;99.90;;;;;;5073901;28;20051;-74
2021/08/08 02:20:38;;;;;;;2.38;0.77;;;14.40;99.90;;;;;;5073881;28;20036;-74
2021/08/08 02:23:04;;;;;;;1.70;0.80;;;14.40;99.90;;;;;;5055921;28;20020;-74
2021/08/08 02:25:30;;;;;;;5.18;0.70;;;14.40;99.90;;;;;;5056466;28;20029;-74
2021/08/08 02:27:55;;;;;;;4.00;0.65;;;14.50;99.90;;;;;;5073709;28;20058;-74
2021/08/08 02:30:21;;;;;;;1.75;0.60;;;14.50;99.90;;;;;;5073735;28;20449;-74
2021/08/08 02:32:46;;;;;;;3.33;0.80;;;14.40;99.90;;;;;;5073775;28;20457;-74
2021/08/08 02:35:12;;;;;;;2.85;0.70;;;14.40;99.90;;;;;;5074047;28;20477;-73
2021/08/08 02:37:38;;;;;;;1.80;0.80;;;14.50;99.90;;;;;;5073768;28;20048;-73
2021/08/08 02:40:07;;;;;;;2.53;0.93;;;14.40;99.90;;;;;;5073810;28;20024;-73
2021/08/08 02:42:36;;;;;;;3.80;0.80;;;14.50;99.90;;;;;;5073442;28;20481;-73
2021/08/08 02:45:02;;;;;;;0.93;0.70;;;14.40;99.90;;;;;;5073619;28;20436;-73
2021/08/08 02:47:29;;;;;;;1.92;0.70;;;14.40;99.90;;;;;;5073258;28;20069;-73
2021/08/08 02:49:54;;;;;;;3.70;0.70;;;14.40;99.90;;;;;;5073232;28;20017;-73
2021/08/08 02:52:20;;;;;;;1.77;0.88;;;14.40;99.90;;;;;;5073684;28;20099;-73
2021/08/08 02:54:46;;;;;;;2.63;0.70;;;14.40;99.90;;;;;;5073392;28;20048;-73
2021/08/08 02:57:11;;;;;;;1.52;0.90;;;14.50;99.90;;;;;;5072623;28;20091;-72
2021/08/08 02:59:37;;;;;;;0.70;0.70;;;14.50;99.90;;;;;;5087050;28;20034;-73
2021/08/08 03:02:03;;;;;;;1.13;0.60;;;14.50;99.90;;;;;;5075808;28;20031;-72
2021/08/08 03:04:29;;;;;;;1.60;0.90;;;14.50;99.90;;;;;;5093186;28;20078;-73
2021/08/08 03:06:55;;;;;;;1.02;0.80;;;14.40;99.90;;;;;;5075253;28;20024;-72
2021/08/08 03:09:20;;;;;;;1.10;0.68;;;14.40;99.90;;;;;;5054921;28;20543;-72
2021/08/08 03:11:47;;;;;;;1.10;0.90;;;14.40;99.90;;;;;;5055030;28;20029;-73
2021/08/08 03:14:14;;;;;;;2.30;0.90;;;14.40;99.90;;;;;;5073111;28;20025;-72
2021/08/08 03:16:41;;;;;;;2.35;0.60;;;14.40;99.90;;;;;;5073322;28;20550;-73
2021/08/08 03:19:06;;;;;;;1.80;0.82;;;14.40;99.90;;;;;;5072894;28;20036;-72
2021/08/08 03:21:32;;;;;;;1.42;0.70;;;14.40;99.90;;;;;;5072761;28;20060;-73
2021/08/08 03:23:57;;;;;;;1.50;0.77;;;14.40;99.90;;;;;;5073011;28;20025;-73
2021/08/08 03:26:23;;;;;;;2.60;0.70;;;14.40;99.90;;;;;;5073119;28;20016;-72
2021/08/08 03:28:49;;;;;;;1.20;0.77;;;14.40;99.90;;;;;;5072750;28;20458;-73
2021/08/08 03:31:17;;;;;;;1.73;0.90;;;14.40;99.90;;;;;;5071933;28;20071;-79
2021/08/08 03:33:43;;;;;;;1.35;0.80;;;14.40;99.90;;;;;;5072851;28;20032;-73
2021/08/08 03:36:11;;;;;;;1.42;0.80;;;14.40;99.90;;;;;;5072770;28;20427;-73
2021/08/08 03:38:36;;;;;;;0.65;0.63;;;14.40;99.90;;;;;;5072920;28;20437;-73
2021/08/08 03:41:05;;;;;;;1.90;0.80;;;14.40;99.90;;;;;;5072463;28;20111;-73
2021/08/08 03:43:32;;;;;;;0.93;0.70;;;14.40;99.90;;;;;;5072634;28;20419;-73
2021/08/08 03:45:58;;;;;;;3.40;0.90;;;14.30;99.90;;;;;;5086026;28;20024;-73
2021/08/08 03:48:23;;;;;;;1.25;0.77;;;14.30;99.90;;;;;;5092717;28;20484;-73
2021/08/08 03:50:49;;;;;;;1.40;0.80;;;14.30;99.90;;;;;;5074511;28;20069;-73
2021/08/08 03:53:14;;;;;;;2.67;0.70;;;14.30;99.90;;;;;;5074708;28;20119;-72
2021/08/08 03:55:40;;;;;;;0.98;0.70;;;14.30;99.90;;;;;;5092623;28;20028;-73
2021/08/08 03:58:06;;;;;;;2.47;0.95;;;14.20;99.90;;;;;;5077158;28;20036;-73
2021/08/08 04:00:31;;;;;;;1.67;0.88;;;14.20;99.90;;;;;;5072735;28;20394;-73
2021/08/08 04:02:57;;;;;;;4.85;0.90;;;14.20;99.90;;;;;;5072433;28;20047;-73
2021/08/08 04:05:22;;;;;;;1.92;0.80;;;14.20;99.90;;;;;;5054334;28;20158;-73
2021/08/08 04:07:48;;;;;;;2.25;0.80;;;14.20;99.90;;;;;;5055114;28;20025;-72
2021/08/08 04:10:14;;;;;;;1.05;0.73;;;14.20;99.90;;;;;;5076376;28;20033;-72
2021/08/08 04:12:40;;;;;;;1.98;0.80;;;14.20;99.90;;;;;;5076254;28;20028;-73
2021/08/08 04:15:06;;;;;;;0.95;0.77;;;14.20;99.90;;;;;;5076294;28;20074;-73
2021/08/08 04:17:32;;;;;;;4.28;1.13;;;14.20;99.90;;;;;;5076462;28;20082;-73
2021/08/08 04:19:57;;;;;;;1.25;0.70;;;14.20;99.90;;;;;;5076256;28;20036;-73
2021/08/08 04:22:23;;;;;;;1.58;1.05;;;14.20;99.90;;;;;;5076134;28;20032;-73
2021/08/08 04:24:49;;;;;;;1.98;0.82;;;14.20;99.90;;;;;;5076005;28;20028;-73
2021/08/08 04:27:14;;;;;;;3.33;0.95;;;14.30;99.90;;;;;;5076098;28;20108;-73
2021/08/08 04:29:41;;;;;;;1.85;0.80;;;14.30;99.90;;;;;;5076365;28;20434;-72
2021/08/08 04:32:07;;;;;;;2.58;1.00;;;14.30;99.90;;;;;;5075863;28;20028;-72
2021/08/08 04:34:33;;;;;;;1.30;0.65;;;14.30;99.90;;;;;;5076117;28;20113;-73
2021/08/08 04:36:59;;;;;;;1.42;0.77;;;14.20;99.90;;;;;;5076120;28;20087;-73
2021/08/08 04:39:25;;;;;;;1.23;0.70;;;14.30;99.90;;;;;;5075617;28;20036;-73
2021/08/08 04:41:52;;;;;;;3.10;0.80;;;14.20;99.90;;;;;;5075768;28;20373;-72
2021/08/08 04:44:19;;;;;;;2.10;0.93;;;14.20;99.90;;;;;;5075691;28;20021;-73
2021/08/08 04:46:44;;;;;;;2.17;0.80;;;14.20;99.90;;;;;;5057535;28;20085;-73
2021/08/08 04:49:10;;;;;;;3.25;1.45;;;14.20;99.90;;;;;;5075644;28;20119;-72
2021/08/08 04:51:35;;;;;;;4.57;0.90;;;14.20;99.90;;;;;;5076056;28;20024;-73
2021/08/08 04:54:01;;;;;;;1.00;0.80;;;14.30;99.90;;;;;;5075485;28;20355;-72
2021/08/08 04:56:26;;;;;;;1.65;0.88;;;14.30;99.90;;;;;;5075502;28;20336;-73
2021/08/08 04:58:52;;;;;;;5.57;1.02;;;14.30;99.90;;;;;;5075355;28;20052;-73
2021/08/08 05:01:18;;;;;;;3.42;0.90;;;14.40;99.90;;;;;;5070759;28;20044;-80
2021/08/08 05:03:43;;;;;;;3.05;0.88;;;14.50;99.90;;;;;;5071007;28;20027;-73
2021/08/08 05:06:09;;;;;;;1.50;1.02;;;14.50;99.90;;;;;;5072091;28;20032;-74
2021/08/08 05:08:34;;;;;;;1.50;0.75;;;14.60;99.90;;;;;;5075293;28;20028;-74
2021/08/08 05:11:00;;;;;;;1.27;0.90;;;14.70;99.90;;;;;;5075534;28;20484;-74
2021/08/08 05:13:28;;;;;;;2.95;1.00;;;14.70;99.90;;;;;;5075490;28;20370;-74
2021/08/08 05:15:54;;;;;;;4.22;0.88;;;14.70;99.90;;;;;;5075411;28;20127;-74
2021/08/08 05:18:20;;;;;;;1.35;1.13;;;14.80;99.90;;;;;;5057275;28;20427;-75
2021/08/08 05:20:45;;;;;;;2.00;0.80;;;14.90;99.90;;;;;;5074528;28;20033;-75
2021/08/08 05:23:11;;;;;;;1.10;0.73;;;14.90;99.90;;;;;;5075438;28;20024;-74
2021/08/08 05:25:36;;;;;;;5.07;0.98;;;15.00;99.90;;;;;;5074978;28;20067;-74
2021/08/08 05:28:02;;;;;;;2.42;0.95;;;15.00;99.90;;;;;;5075242;28;20021;-74
2021/08/08 05:30:28;;;;;;;4.18;0.93;;;15.10;99.90;;;;;;5075151;28;20075;-74
2021/08/08 05:32:53;;;;;;;1.52;1.17;;;15.10;99.90;;;;;;5074955;28;20024;-74
2021/08/08 05:35:19;;;;;;;3.08;1.20;;;15.20;99.90;;;;;;5056784;28;20025;-74
2021/08/08 05:37:45;;;;;;;2.58;1.00;;;15.20;99.90;;;;;;5074683;28;20029;-74
2021/08/08 05:40:11;;;;;;;1.20;0.85;;;15.20;99.90;;;;;;5074762;28;20028;-74
2021/08/08 05:42:37;;;;;;;3.45;0.95;;;15.30;99.90;;;;;;5074938;28;20423;-74
2021/08/08 05:45:04;;;;;;;3.30;1.00;;;15.30;99.90;;;;;;5074896;28;20091;-74
2021/08/08 05:47:30;;;;;;;2.50;1.17;;;15.40;99.90;;;;;;5074495;28;20028;-74
2021/08/08 05:49:56;;;;;;;1.63;0.80;;;15.40;99.90;;;;;;5074955;28;20029;-74
2021/08/08 05:52:22;;;;;;;3.28;0.80;;;15.50;99.90;;;;;;5074694;28;20040;-73
2021/08/08 05:54:47;;;;;;;2.90;0.95;;;15.50;99.90;;;;;;5074455;28;20027;-73
2021/08/08 05:57:13;;;;;;;2.85;1.00;;;15.50;99.90;;;;;;5074468;28;20078;-72
2021/08/08 05:59:38;;;;;;;2.55;1.00;;;15.60;99.90;;;;;;5056322;28;20024;-72
2021/08/08 06:02:04;;;;;;;2.97;1.40;;;15.60;99.90;;;;;;5056237;28;20396;-73
2021/08/08 06:04:29;;;;;;;1.70;1.10;;;15.60;99.90;;;;;;5072642;28;20025;-75
2021/08/08 06:06:56;;;;;;;1.73;1.00;;;15.70;99.90;;;;;;5070602;28;20052;-73
2021/08/08 06:09:22;;;;;;;1.90;0.90;;;15.70;99.90;;;;;;5071952;28;20034;-75
2021/08/08 06:11:48;;;;;;;1.40;0.75;;;15.90;99.90;;;;;;5070039;28;20025;-73
2021/08/08 06:14:14;;;;;;;2.88;0.93;;;15.80;99.90;;;;;;5054457;28;20552;-73
2021/08/08 06:16:39;;;;;;;3.38;0.90;;;15.90;99.90;;;;;;5071485;28;20082;-73
2021/08/08 06:19:05;;;;;;;1.08;0.80;;;16.00;99.90;;;;;;5053324;28;20025;-73
2021/08/08 06:21:30;;;;;;;1.20;0.80;;;16.00;99.90;;;;;;5071044;28;20021;-73
2021/08/08 06:23:56;;;;;;;2.60;0.90;;;16.10;99.90;;;;;;5071730;28;20025;-72
2021/08/08 06:26:21;;;;;;;2.30;1.00;;;16.10;99.90;;;;;;5072304;28;20020;-73
2021/08/08 06:28:47;;;;;;;2.15;0.90;;;16.00;99.90;;;;;;5071887;28;20012;-73
2021/08/08 06:31:12;;;;;;;3.15;1.00;;;16.10;99.90;;;;;;5071876;28;20020;-73
2021/08/08 06:33:38;;;;;;;3.30;1.30;;;16.20;99.90;;;;;;5072045;28;20718;-76
2021/08/08 06:36:04;;;;;;;1.50;0.90;;;16.10;99.90;;;;;;5077390;28;20469;-74
2021/08/08 06:38:29;;;;;;;1.80;1.00;;;16.20;99.90;;;;;;5073132;28;20025;-74
2021/08/08 06:40:55;;;;;;;3.63;1.08;;;16.20;99.90;;;;;;5070663;28;20052;-81
2021/08/08 06:43:20;;;;;;;2.80;0.80;;;16.20;99.90;;;;;;5067137;28;20035;-74
2021/08/08 06:45:46;;;;;;;2.58;1.00;;;16.30;99.90;;;;;;5071902;28;20094;-80
2021/08/08 06:48:16;;;;;;;1.45;1.10;;;16.40;99.90;;;;;;5069717;28;20032;-81
2021/08/08 06:50:43;;;;;;;1.52;0.93;;;16.40;99.90;;;;;;5071170;28;20029;-80
2021/08/08 06:53:09;;;;;;;5.43;0.90;;;16.40;99.90;;;;;;5062661;28;20040;-81
2021/08/08 06:55:34;;;;;;;3.60;1.00;;;16.40;99.90;;;;;;5066590;28;20028;-81
2021/08/08 06:58:00;;;;;;;4.05;1.00;;;16.40;99.90;;;;;;5072813;28;20029;-74
2021/08/08 07:00:25;;;;;;;3.08;1.00;;;16.40;99.90;;;;;;5073189;28;20025;-74
2021/08/08 07:02:51;;;;;;;3.47;1.00;;;16.50;99.90;;;;;;5074443;28;20021;-73
2021/08/08 07:05:17;;;;;;;1.63;0.90;;;16.50;99.90;;;;;;5073660;28;20033;-73
2021/08/08 07:07:43;;;;;;;3.75;1.23;;;16.60;99.90;;;;;;5073368;28;20027;-74
2021/08/08 07:10:09;;;;;;;2.92;1.05;;;16.60;99.90;;;;;;5073442;28;20028;-73
2021/08/08 07:12:36;;;;;;;3.25;0.90;;;16.70;99.90;;;;;;5072914;28;20028;-74
2021/08/08 07:15:07;;;;;;;3.63;1.00;;;16.80;99.90;;;;;;5048553;28;20040;-74
2021/08/08 07:17:33;;;;;;;2.33;1.10;;;16.80;99.90;;;;;;5072912;28;20031;-74
2021/08/08 07:19:59;;;;;;;2.15;1.02;;;16.80;99.90;;;;;;5073222;28;20070;-74
2021/08/08 07:22:25;;;;;;;3.20;1.20;;;16.70;99.90;;;;;;5073090;28;20471;-74
2021/08/08 07:24:53;;;;;;;4.07;1.10;;;16.80;99.90;;;;;;5054752;28;20062;-74
2021/08/08 07:27:20;;;;;;;2.42;1.00;;;16.80;99.90;;;;;;5072769;28;20531;-74
2021/08/08 07:29:45;;;;;;;3.60;1.23;;;16.80;99.90;;;;;;5054767;28;20060;-74
2021/08/08 07:32:11;;;;;;;2.92;0.90;;;16.90;99.90;;;;;;5054623;28;20102;-74
2021/08/08 07:34:36;;;;;;;3.83;0.90;;;16.90;99.90;;;;;;5072940;28;20021;-74
2021/08/08 07:37:02;;;;;;;4.10;1.27;;;17.00;99.90;;;;;;5072803;28;20435;-74
2021/08/08 07:39:29;;;;;;;3.03;1.30;;;17.10;99.90;;;;;;5054406;28;20132;-74
2021/08/08 07:41:54;;;;;;;1.75;1.10;;;17.20;99.90;;;;;;5073034;28;20445;-73
2021/08/08 07:44:20;;;;;;;1.60;1.13;;;17.30;99.90;;;;;;5072110;28;20020;-74
2021/08/08 07:46:46;;;;;;;2.80;1.17;;;17.40;99.90;;;;;;5073028;28;20025;-73
2021/08/08 07:49:11;;;;;;;3.55;1.08;;;17.60;99.90;;;;;;5072477;28;20473;-74
2021/08/08 07:51:37;;;;;;;3.58;1.42;;;17.70;99.90;;;;;;5072746;28;20052;-74
2021/08/08 07:54:02;;;;;;;3.20;1.35;;;17.80;99.90;;;;;;5072608;28;20027;-74
2021/08/08 07:56:28;;;;;;;3.13;0.98;;;17.80;99.90;;;;;;5073004;28;20024;-74
2021/08/08 07:58:53;;;;;;;3.50;1.10;;;17.90;99.90;;;;;;5072557;28;20025;-74
2021/08/08 08:01:19;;;;;;;2.78;1.02;;;17.90;99.90;;;;;;5062674;28;20032;-80
2021/08/08 08:03:45;;;;;;;1.95;0.80;;;18.10;99.90;;;;;;5065262;28;20078;-75
2021/08/08 08:06:10;;;;;;;3.15;1.02;;;18.10;99.90;;;;;;5071214;28;20361;-81
2021/08/08 08:08:36;;;;;;;2.58;0.90;;;18.10;99.90;;;;;;5061279;28;20043;-80
2021/08/08 08:11:01;;;;;;;1.55;0.90;;;18.20;99.90;;;;;;5062508;28;20097;-80
2021/08/08 08:13:27;;;;;;;3.38;1.02;;;18.30;99.90;;;;;;5069982;28;20093;-74
2021/08/08 08:15:52;;;;;;;2.55;1.10;;;18.30;99.90;;;;;;5072088;28;20083;-75
2021/08/08 08:18:18;;;;;;;2.67;0.77;;;18.20;99.90;;;;;;5078891;28;20024;-76
2021/08/08 08:20:43;;;;;;;5.95;1.13;;;18.30;99.90;;;;;;5070916;28;20047;-76
2021/08/08 08:23:09;;;;;;;1.67;1.02;;;18.40;99.90;;;;;;5051010;28;20669;-76
2021/08/08 08:25:35;;;;;;;3.00;1.00;;;18.50;99.90;;;;;;5070715;28;20017;-76
2021/08/08 08:28:00;;;;;;;2.45;1.05;;;18.50;99.90;;;;;;5053933;28;20100;-75
2021/08/08 08:30:27;;;;;;;5.70;1.02;;;18.40;99.90;;;;;;5052140;28;20064;-81
2021/08/08 08:32:56;;;;;;;6.85;1.17;;;18.40;99.90;;;;;;5070369;28;20040;-81
2021/08/08 08:35:21;;;;;;;2.00;0.88;;;18.50;99.90;;;;;;5069492;28;20024;-81
2021/08/08 08:37:47;;;;;;;1.83;0.93;;;18.40;99.90;;;;;;5067183;28;20436;-75
2021/08/08 08:40:12;;;;;;;2.22;0.90;;;18.50;99.90;;;;;;5071750;28;20028;-75
2021/08/08 08:42:49;;;;;;;1.88;0.98;;;18.50;99.90;;;;;;5072481;28;20017;-75
2021/08/08 08:45:15;;;;;;;4.18;1.10;;;18.50;99.90;;;;;;5069771;28;20017;-75
2021/08/08 08:47:42;;;;;;;3.83;1.13;;;18.60;99.90;;;;;;5072433;28;20029;-75
2021/08/08 08:50:09;;;;;;;2.22;0.85;;;18.70;99.90;;;;;;5072016;28;20047;-75
2021/08/08 08:52:35;;;;;;;1.58;1.00;;;18.80;99.90;;;;;;5072042;28;20096;-75
2021/08/08 08:55:03;;;;;;;2.88;1.08;;;18.80;99.90;;;;;;5073086;28;20040;-75
2021/08/08 08:57:30;;;;;;;2.25;0.90;;;19.00;99.90;;;;;;5075326;28;20033;-75
2021/08/08 08:59:57;;;;;;;4.00;1.13;;;19.00;99.90;;;;;;5075256;28;20029;-75
2021/08/08 09:02:23;;;;;;;4.93;1.35;;;19.10;99.90;;;;;;5075384;28;20021;-75
2021/08/08 09:04:48;;;;;;;3.50;1.30;;;19.20;99.90;;;;;;5075164;28;20067;-75
2021/08/08 09:07:15;;;;;;;2.88;1.00;;;19.20;99.90;;;;;;5075078;28;20100;-75
2021/08/08 09:09:40;;;;;;;2.83;1.00;;;19.20;99.90;;;;;;5075340;28;20099;-75
2021/08/08 09:12:07;;;;;;;1.98;0.90;;;19.20;99.90;;;;;;5057622;28;20198;-76
2021/08/08 09:14:34;;;;;;;2.55;1.00;;;19.30;99.90;;;;;;5057295;28;20106;-75
2021/08/08 09:16:59;;;;;;;3.38;1.10;;;19.30;99.90;;;;;;5075397;28;20033;-75
2021/08/08 09:19:31;;;;;;;3.03;0.98;;;19.40;99.90;;;;;;5075372;28;20021;-75
2021/08/08 09:21:57;;;;;;;2.65;0.93;;;19.40;99.90;;;;;;5075464;28;20346;-75
2021/08/08 09:24:30;;;;;;;3.10;1.10;;;19.60;99.90;;;;;;5076164;28;20024;-74
2021/08/08 09:27:01;;;;;;;3.50;1.00;;;19.70;99.90;;;;;;5074106;28;20032;-74
2021/08/08 09:29:27;;;;;;;1.80;1.00;;;19.90;99.90;;;;;;5075902;28;20035;-75
2021/08/08 09:31:52;;;;;;;2.75;0.90;;;19.90;99.90;;;;;;5075533;28;20099;-75
2021/08/08 09:34:30;;;;;;;1.77;0.90;;;20.00;99.90;;;;;;5075004;28;20028;-75
2021/08/08 09:37:06;;;;;;;1.85;0.90;;;20.10;99.90;;;;;;5071261;28;20024;-72
2021/08/08 09:39:42;;;;;;;5.22;1.00;;;20.30;99.90;;;;;;5068363;28;20099;-72
2021/08/08 09:42:17;;;;;;;3.65;0.95;;;20.40;99.90;;;;;;5070046;28;20489;-72
2021/08/08 09:44:59;;;;;;;2.35;0.70;;;20.30;99.90;;;;;;5068766;28;20032;-72
2021/08/08 09:47:40;;;;;;;2.20;0.90;;;20.50;99.90;;;;;;5066106;28;20107;-72
2021/08/08 09:50:10;;;;;;;2.42;1.13;;;20.50;99.90;;;;;;5067664;28;20081;-72
2021/08/08 09:52:37;;;;;;;2.70;1.10;;;20.80;99.90;;;;;;5070167;28;20493;-72
2021/08/08 09:55:28;;;;;;;4.72;1.05;;;21.10;99.90;;;;;;5068890;28;20534;-72
2021/08/08 09:57:55;;;;;;;4.65;0.90;;;21.10;99.90;;;;;;5067773;28;20028;-72
2021/08/08 10:00:27;;;;;;;2.97;1.15;;;21.30;99.90;;;;;;5069116;28;20377;-72
2021/08/08 10:02:54;;;;;;;1.67;0.75;;;21.30;99.90;;;;;;5067864;28;20107;-72
2021/08/08 10:05:21;;;;;;;2.35;1.00;;;21.20;99.90;;;;;;5069713;28;20067;-73
2021/08/08 10:07:48;;;;;;;2.50;0.88;;;21.50;99.90;;;;;;5070424;28;20039;-73
2021/08/08 10:10:15;;;;;;;1.65;0.80;;;21.40;99.90;;;;;;5069255;28;20020;-72
2021/08/08 10:12:55;;;;;;;2.38;1.05;;;21.50;99.90;;;;;;5055451;28;20033;-73
2021/08/08 10:15:21;;;;;;;1.85;0.85;;;21.50;99.90;;;;;;5058741;28;20043;-73
2021/08/08 10:17:49;;;;;;;2.42;0.80;;;21.50;99.90;;;;;;5063343;28;20036;-73
2021/08/08 10:20:15;;;;;;;1.70;0.80;;;21.40;99.90;;;;;;5065913;28;20021;-73
2021/08/08 10:22:44;;;;;;;1.92;0.88;;;21.30;99.90;;;;;;5066357;28;20035;-72
2021/08/08 10:25:10;;;;;;;3.20;0.90;;;21.10;99.90;;;;;;5065421;28;20063;-72
2021/08/08 10:27:37;;;;;;;11.63;1.40;;;20.90;99.90;;;;;;5063865;28;20556;-72
2021/08/08 10:30:04;;;;;;;4.03;1.00;;;20.80;99.90;;;;;;5066298;28;20031;-72
2021/08/08 10:32:30;;;;;;;1.20;0.70;;;20.70;99.90;;;;;;5044552;28;20028;-72
2021/08/08 10:34:56;;;;;;;2.60;1.02;;;20.50;99.90;;;;;;5064655;28;20112;-72
2021/08/08 10:37:25;;;;;;;3.40;0.80;;;20.40;99.90;;;;;;5061751;28;20040;-72
2021/08/08 10:39:52;;;;;;;1.90;1.20;;;20.40;99.90;;;;;;5061319;28;20044;-72
2021/08/08 10:42:21;;;;;;;2.05;1.10;;;20.40;99.90;;;;;;5061796;28;20473;-72
2021/08/08 10:44:58;;;;;;;4.72;1.70;;;20.40;99.90;;;;;;5061761;28;20039;-72
2021/08/08 10:47:32;;;;;;;1.35;0.90;;;20.40;99.90;;;;;;5061492;28;20897;-72
2021/08/08 10:50:12;;;;;;;3.42;1.13;;;20.40;99.90;;;;;;5060981;28;20036;-72
2021/08/08 10:52:41;;;;;;;2.45;0.90;;;20.40;99.90;;;;;;5072096;28;20382;-72
2021/08/08 10:55:08;;;;;;;2.00;0.80;;;20.40;99.90;;;;;;5070826;28;20746;-72
2021/08/08 10:57:43;;;;;;;1.52;0.70;;;20.40;99.90;;;;;;5071054;28;20384;-72
2021/08/08 11:00:13;;;;;;;2.58;1.13;;;20.40;99.90;;;;;;5071115;28;20385;-72
2021/08/08 11:02:39;;;;;;;2.55;0.90;;;20.50;99.90;;;;;;5074516;28;20024;-71
2021/08/08 11:05:16;;;;;;;3.17;1.10;;;20.60;99.90;;;;;;5073184;28;20032;-72
2021/08/08 11:07:44;;;;;;;3.10;0.80;;;20.70;99.90;;;;;;5055808;28;20028;-72
2021/08/08 11:10:10;;;;;;;1.27;0.82;;;20.80;99.90;;;;;;5074007;28;20098;-72
2021/08/08 11:12:38;;;;;;;1.70;0.90;;;20.90;99.90;;;;;;5074949;28;20027;-72
2021/08/08 11:15:05;;;;;;;1.75;0.88;;;21.00;99.90;;;;;;5072129;28;20102;-72
2021/08/08 11:17:31;;;;;;;5.38;0.88;;;21.00;99.90;;;;;;5072470;28;20032;-72
2021/08/08 11:19:57;;;;;;;2.08;0.90;;;21.00;99.90;;;;;;5074853;28;20043;-72
2021/08/08 11:22:22;;;;;;;1.58;0.82;;;21.20;99.90;;;;;;5072091;28;20085;-71
2021/08/08 11:25:01;;;;;;;3.40;0.95;;;21.40;99.90;;;;;;5072880;28;20024;-71
2021/08/08 11:27:35;;;;;;;1.70;0.80;;;21.60;99.90;;;;;;5051830;28;20030;-71
2021/08/08 11:30:03;;;;;;;2.35;0.80;;;21.90;99.90;;;;;;5070468;28;20028;-71
2021/08/08 11:32:31;;;;;;;4.25;1.05;;;22.00;99.90;;;;;;5071470;28;20089;-71
2021/08/08 11:35:12;;;;;;;1.85;0.80;;;22.00;99.90;;;;;;5070127;28;20052;-71
2021/08/08 11:37:46;;;;;;;3.50;0.88;;;22.00;99.90;;;;;;5073144;28;20050;-71
2021/08/08 11:40:21;;;;;;;1.80;0.88;;;22.10;99.90;;;;;;5075470;28;20032;-71
2021/08/08 11:42:47;;;;;;;;;;;21.90;99.90;;;;;;5071974;28;20921;-71
2021/08/08 11:45:13;;;;;;;1.13;0.70;;;21.80;99.90;;;;;;5075236;28;19908;-71
2021/08/08 11:47:39;;;;;;;2.47;0.70;;;21.70;99.90;;;;;;5070004;28;20032;-71
2021/08/08 11:50:08;;;;;;;1.90;1.20;;;21.50;99.90;;;;;;5074659;28;20037;-71
2021/08/08 11:52:36;;;;;;;2.05;1.13;;;21.30;99.90;;;;;;5073426;28;20165;-71
2021/08/08 11:55:05;;;;;;;2.55;1.02;;;21.10;99.90;;;;;;5071165;28;20093;-71
2021/08/08 11:57:32;;;;;;;3.05;1.10;;;20.90;99.90;;;;;;5071601;28;20031;-70
2021/08/08 11:59:58;;;;;;;1.92;0.80;;;20.70;99.90;;;;;;5073693;28;20040;-71
2021/08/08 12:02:25;;;;;;;3.25;0.90;;;20.50;99.90;;;;;;5055181;28;20546;-71
2021/08/08 12:04:53;;;;;;;2.83;1.20;;;20.30;99.90;;;;;;5073650;28;20040;-71
2021/08/08 12:07:21;;;;;;;6.15;1.10;;;20.00;99.90;;;;;;5074794;28;20508;-71
2021/08/08 12:09:49;;;;;;;1.20;0.77;;;19.80;99.90;;;;;;5071086;28;20421;-71
2021/08/08 12:12:15;;;;;;;2.47;0.90;;;19.70;99.90;;;;;;5073084;28;20043;-72
2021/08/08 12:14:43;;;;;;;2.08;0.90;;;19.50;99.90;;;;;;5057084;28;20044;-72
2021/08/08 12:17:20;;;;;;;3.03;0.95;;;19.40;99.90;;;;;;5074472;28;20028;-71
2021/08/08 12:19:48;;;;;;;2.60;1.10;;;19.20;99.90;;;;;;5074533;28;20024;-71
2021/08/08 12:22:16;;;;;;;2.28;1.30;;;19.00;99.90;;;;;;5074536;28;20035;-71
2021/08/08 12:24:50;;;;;;;1.98;0.95;;;19.00;99.90;;;;;;5075511;28;20017;-75
2021/08/08 12:27:28;;;;;;;2.40;1.20;;;18.90;99.90;;;;;;5072222;28;20167;-75
2021/08/08 12:29:57;;;;;;;3.38;1.30;;;18.70;99.90;;;;;;5057233;28;20043;-74
2021/08/08 12:32:22;;;;;;;2.08;1.20;;;18.40;99.90;;;;;;5076824;28;20082;-74
2021/08/08 12:34:49;;;;;;;1.55;1.02;;;18.20;99.90;;;;;;5075919;28;20024;-74
2021/08/08 12:37:19;;;;;;;3.42;1.23;;;18.10;99.90;;;;;;5076224;28;20031;-74
2021/08/08 12:39:45;;;;;;;5.85;1.27;;;18.00;99.90;;;;;;5068781;28;20128;-81
2021/08/08 12:42:24;;;;;;;2.67;1.15;;;18.10;99.90;;;;;;5066563;28;20160;-81
2021/08/08 12:45:08;;;;;;;4.50;1.15;;;18.20;99.90;;;;;;5064484;28;20036;-80
2021/08/08 12:47:35;;;;;;;2.22;1.08;;;18.40;99.90;;;;;;5058188;28;20078;-80